Terminal Aerodrome Forecast
Issued by NWS

Home | Current Version | Previous Version | Text Only | Print | Product List | Glossary On
Versions: 1 2 3 4 5 6 7 8 9 10 11 12 13 14 15 16 17
000
FTAK31 PAJN 232335
TAFASI
TAF
PASI 232335Z 2400/2424 09006KT P6SM -RASN SCT008 SCT025 OVC040
      TEMPO 2400/2402 12010KT 3SM -SN BR BKN015 OVC025
     FM240300 12006KT P6SM -RA BKN025 BKN040 OVC060
     FM240800 12015KT 4SM -RA OVC025
     FM241200 12015G25KT 3SM -RA BKN012 OVC025
     FM241800 12020G30KT 6SM -RA BKN035 OVC050=

USA.gov is the U.S. government's official web portal to all federal, state and local government web resources and services.